sensor_id;sensor_type;location;lat;lon;timestamp;temperature;humidity
47765;DHT22;33529;49.242;8.670;2022-12-07T00:01:26;3.90;99.90
47765;DHT22;33529;49.242;8.670;2022-12-07T00:03:55;3.90;99.90
47765;DHT22;33529;49.242;8.670;2022-12-07T00:06:27;3.80;99.90
47765;DHT22;33529;49.242;8.670;2022-12-07T00:08:54;3.90;99.90
47765;DHT22;33529;49.242;8.670;2022-12-07T00:11:22;3.90;99.90
47765;DHT22;33529;49.242;8.670;2022-12-07T00:13:53;3.90;99.90
47765;DHT22;33529;49.242;8.670;2022-12-07T00:16:22;3.90;99.90
47765;DHT22;33529;49.242;8.670;2022-12-07T00:18:49;3.90;99.90
47765;DHT22;33529;49.242;8.670;2022-12-07T00:21:19;3.90;99.90
47765;DHT22;33529;49.242;8.670;2022-12-07T00:23:47;3.80;99.90
47765;DHT22;33529;49.242;8.670;2022-12-07T00:26:22;3.80;99.90
47765;DHT22;33529;49.242;8.670;2022-12-07T00:28:51;3.80;99.90
47765;DHT22;33529;49.242;8.670;2022-12-07T00:31:20;3.80;99.90
47765;DHT22;33529;49.242;8.670;2022-12-07T00:33:49;3.70;99.90
47765;DHT22;33529;49.242;8.670;2022-12-07T00:36:21;3.70;99.90
47765;DHT22;33529;49.242;8.670;2022-12-07T00:38:53;3.70;99.90
47765;DHT22;33529;49.242;8.670;2022-12-07T00:41:22;3.80;99.90
47765;DHT22;33529;49.242;8.670;2022-12-07T00:43:50;3.70;99.90
47765;DHT22;33529;49.242;8.670;2022-12-07T00:46:18;3.70;99.90
47765;DHT22;33529;49.242;8.670;2022-12-07T00:48:45;3.70;99.90
47765;DHT22;33529;49.242;8.670;2022-12-07T00:51:14;3.60;99.90
47765;DHT22;33529;49.242;8.670;2022-12-07T00:53:41;3.60;99.90
47765;DHT22;33529;49.242;8.670;2022-12-07T00:58:42;3.60;99.90
47765;DHT22;33529;49.242;8.670;2022-12-07T01:01:10;3.60;99.90
47765;DHT22;33529;49.242;8.670;2022-12-07T01:03:38;3.60;99.90
47765;DHT22;33529;49.242;8.670;2022-12-07T01:06:05;3.60;99.90
47765;DHT22;33529;49.242;8.670;2022-12-07T01:08:32;3.70;99.90
47765;DHT22;33529;49.242;8.670;2022-12-07T01:11:05;3.60;99.90
47765;DHT22;33529;49.242;8.670;2022-12-07T01:13:33;3.60;99.90
47765;DHT22;33529;49.242;8.670;2022-12-07T01:16:03;3.60;99.90
47765;DHT22;33529;49.242;8.670;2022-12-07T01:18:33;3.60;99.90
47765;DHT22;33529;49.242;8.670;2022-12-07T01:21:15;3.60;99.90
47765;DHT22;33529;49.242;8.670;2022-12-07T01:23:43;3.50;99.90
47765;DHT22;33529;49.242;8.670;2022-12-07T01:26:13;3.60;99.90
47765;DHT22;33529;49.242;8.670;2022-12-07T01:28:41;3.60;99.90
47765;DHT22;33529;49.242;8.670;2022-12-07T01:31:10;3.70;99.90
47765;DHT22;33529;49.242;8.670;2022-12-07T01:33:45;3.70;99.90
47765;DHT22;33529;49.242;8.670;2022-12-07T01:36:18;3.70;99.90
47765;DHT22;33529;49.242;8.670;2022-12-07T01:38:46;3.80;99.90
47765;DHT22;33529;49.242;8.670;2022-12-07T01:41:13;3.80;99.90
47765;DHT22;33529;49.242;8.670;2022-12-07T01:46:49;3.80;99.90
47765;DHT22;33529;49.242;8.670;2022-12-07T01:51:49;3.80;99.90
47765;DHT22;33529;49.242;8.670;2022-12-07T01:54:19;3.80;99.90
47765;DHT22;33529;49.242;8.670;2022-12-07T01:56:51;3.80;99.90
47765;DHT22;33529;49.242;8.670;2022-12-07T01:59:21;3.80;99.90
47765;DHT22;33529;49.242;8.670;2022-12-07T02:01:49;3.80;99.90
47765;DHT22;33529;49.242;8.670;2022-12-07T02:04:15;3.80;99.90
47765;DHT22;33529;49.242;8.670;2022-12-07T02:06:43;3.80;99.90
47765;DHT22;33529;49.242;8.670;2022-12-07T02:09:11;3.90;99.90
47765;DHT22;33529;49.242;8.670;2022-12-07T02:11:41;3.90;99.90
47765;DHT22;33529;49.242;8.670;2022-12-07T02:14:08;3.90;99.90
47765;DHT22;33529;49.242;8.670;2022-12-07T02:17:37;3.80;99.90
47765;DHT22;33529;49.242;8.670;2022-12-07T02:30:50;3.80;99.90
47765;DHT22;33529;49.242;8.670;2022-12-07T02:33:28;3.80;99.90
47765;DHT22;33529;49.242;8.670;2022-12-07T02:36:20;3.80;99.90
47765;DHT22;33529;49.242;8.670;2022-12-07T02:38:54;3.80;99.90
47765;DHT22;33529;49.242;8.670;2022-12-07T02:41:27;3.80;99.90
47765;DHT22;33529;49.242;8.670;2022-12-07T02:43:57;3.80;99.90
47765;DHT22;33529;49.242;8.670;2022-12-07T02:46:32;3.80;99.90
47765;DHT22;33529;49.242;8.670;2022-12-07T02:49:00;3.80;99.90
47765;DHT22;33529;49.242;8.670;2022-12-07T02:51:32;3.80;99.90
47765;DHT22;33529;49.242;8.670;2022-12-07T02:53:59;3.80;99.90
47765;DHT22;33529;49.242;8.670;2022-12-07T03:02:31;3.70;99.90
47765;DHT22;33529;49.242;8.670;2022-12-07T03:08:12;3.60;99.90
47765;DHT22;33529;49.242;8.670;2022-12-07T03:10:50;3.60;99.90
47765;DHT22;33529;49.242;8.670;2022-12-07T03:13:34;3.50;99.90
47765;DHT22;33529;49.242;8.670;2022-12-07T03:18:47;3.50;99.90
47765;DHT22;33529;49.242;8.670;2022-12-07T03:21:18;3.50;99.90
47765;DHT22;33529;49.242;8.670;2022-12-07T03:23:51;3.40;99.90
47765;DHT22;33529;49.242;8.670;2022-12-07T03:26:19;3.40;99.90
47765;DHT22;33529;49.242;8.670;2022-12-07T03:28:52;3.40;99.90
47765;DHT22;33529;49.242;8.670;2022-12-07T03:31:25;3.40;99.90
47765;DHT22;33529;49.242;8.670;2022-12-07T03:34:05;3.50;99.90
47765;DHT22;33529;49.242;8.670;2022-12-07T03:36:53;3.50;99.90
47765;DHT22;33529;49.242;8.670;2022-12-07T03:39:54;3.60;99.90
47765;DHT22;33529;49.242;8.670;2022-12-07T03:42:24;3.50;99.90
47765;DHT22;33529;49.242;8.670;2022-12-07T03:44:52;3.50;99.90
47765;DHT22;33529;49.242;8.670;2022-12-07T03:47:35;3.50;99.90
47765;DHT22;33529;49.242;8.670;2022-12-07T03:50:26;3.50;99.90
47765;DHT22;33529;49.242;8.670;2022-12-07T03:53:02;3.50;99.90
47765;DHT22;33529;49.242;8.670;2022-12-07T03:55:34;3.40;99.90
47765;DHT22;33529;49.242;8.670;2022-12-07T03:58:12;3.50;99.90
47765;DHT22;33529;49.242;8.670;2022-12-07T04:00:41;3.50;99.90
47765;DHT22;33529;49.242;8.670;2022-12-07T04:03:08;3.50;99.90
47765;DHT22;33529;49.242;8.670;2022-12-07T04:05:36;3.50;99.90
47765;DHT22;33529;49.242;8.670;2022-12-07T04:08:03;3.50;99.90
47765;DHT22;33529;49.242;8.670;2022-12-07T04:10:30;3.50;99.90
47765;DHT22;33529;49.242;8.670;2022-12-07T04:12:57;3.50;99.90
47765;DHT22;33529;49.242;8.670;2022-12-07T04:15:24;3.50;99.90
47765;DHT22;33529;49.242;8.670;2022-12-07T04:17:51;3.50;99.90
47765;DHT22;33529;49.242;8.670;2022-12-07T04:20:18;3.50;99.90
47765;DHT22;33529;49.242;8.670;2022-12-07T04:22:45;3.40;99.90
47765;DHT22;33529;49.242;8.670;2022-12-07T04:25:11;3.50;99.90
47765;DHT22;33529;49.242;8.670;2022-12-07T04:27:38;3.50;99.90
47765;DHT22;33529;49.242;8.670;2022-12-07T04:30:06;3.50;99.90
47765;DHT22;33529;49.242;8.670;2022-12-07T04:32:33;3.50;99.90
47765;DHT22;33529;49.242;8.670;2022-12-07T04:34:59;3.50;99.90
47765;DHT22;33529;49.242;8.670;2022-12-07T04:37:26;3.50;99.90
47765;DHT22;33529;49.242;8.670;2022-12-07T04:39:53;3.60;99.90
47765;DHT22;33529;49.242;8.670;2022-12-07T04:42:20;3.60;99.90
47765;DHT22;33529;49.242;8.670;2022-12-07T04:44:47;3.60;99.90
47765;DHT22;33529;49.242;8.670;2022-12-07T04:47:13;3.50;99.90
47765;DHT22;33529;49.242;8.670;2022-12-07T04:49:40;3.50;99.90
47765;DHT22;33529;49.242;8.670;2022-12-07T04:52:07;3.50;99.90
47765;DHT22;33529;49.242;8.670;2022-12-07T04:54:34;3.50;99.90
47765;DHT22;33529;49.242;8.670;2022-12-07T04:57:02;3.50;99.90
47765;DHT22;33529;49.242;8.670;2022-12-07T04:59:28;3.50;99.90
47765;DHT22;33529;49.242;8.670;2022-12-07T05:01:55;3.50;99.90
47765;DHT22;33529;49.242;8.670;2022-12-07T05:04:22;3.50;99.90
47765;DHT22;33529;49.242;8.670;2022-12-07T05:06:48;3.40;99.90
47765;DHT22;33529;49.242;8.670;2022-12-07T05:09:15;3.50;99.90
47765;DHT22;33529;49.242;8.670;2022-12-07T05:11:42;3.50;99.90
47765;DHT22;33529;49.242;8.670;2022-12-07T05:14:15;3.50;99.90
47765;DHT22;33529;49.242;8.670;2022-12-07T05:16:44;3.40;99.90
47765;DHT22;33529;49.242;8.670;2022-12-07T05:19:12;3.40;99.90
47765;DHT22;33529;49.242;8.670;2022-12-07T05:21:39;3.40;99.90
47765;DHT22;33529;49.242;8.670;2022-12-07T05:24:07;3.50;99.90
47765;DHT22;33529;49.242;8.670;2022-12-07T05:26:34;3.50;99.90
47765;DHT22;33529;49.242;8.670;2022-12-07T05:29:02;3.40;99.90
47765;DHT22;33529;49.242;8.670;2022-12-07T05:31:29;3.50;99.90
47765;DHT22;33529;49.242;8.670;2022-12-07T05:33:56;3.50;99.90
47765;DHT22;33529;49.242;8.670;2022-12-07T05:36:22;3.50;99.90
47765;DHT22;33529;49.242;8.670;2022-12-07T05:38:49;3.50;99.90
47765;DHT22;33529;49.242;8.670;2022-12-07T05:41:18;3.50;99.90
47765;DHT22;33529;49.242;8.670;2022-12-07T05:44:04;3.50;99.90
47765;DHT22;33529;49.242;8.670;2022-12-07T05:46:32;3.50;99.90
47765;DHT22;33529;49.242;8.670;2022-12-07T05:48:59;3.50;99.90
47765;DHT22;33529;49.242;8.670;2022-12-07T05:51:26;3.50;99.90
47765;DHT22;33529;49.242;8.670;2022-12-07T05:53:53;3.50;99.90
47765;DHT22;33529;49.242;8.670;2022-12-07T05:56:20;3.40;99.90
47765;DHT22;33529;49.242;8.670;2022-12-07T05:58:47;3.60;99.90
47765;DHT22;33529;49.242;8.670;2022-12-07T06:01:32;3.50;99.90
47765;DHT22;33529;49.242;8.670;2022-12-07T06:03:59;3.50;99.90
47765;DHT22;33529;49.242;8.670;2022-12-07T06:06:26;3.50;99.90
47765;DHT22;33529;49.242;8.670;2022-12-07T06:08:53;3.50;99.90
47765;DHT22;33529;49.242;8.670;2022-12-07T06:11:20;3.50;99.90
47765;DHT22;33529;49.242;8.670;2022-12-07T06:14:05;3.50;99.90
47765;DHT22;33529;49.242;8.670;2022-12-07T06:16:32;3.50;99.90
47765;DHT22;33529;49.242;8.670;2022-12-07T06:18:59;3.40;99.90
47765;DHT22;33529;49.242;8.670;2022-12-07T06:21:26;3.40;99.90
47765;DHT22;33529;49.242;8.670;2022-12-07T06:23:54;3.30;99.90
47765;DHT22;33529;49.242;8.670;2022-12-07T06:26:21;3.30;99.90
47765;DHT22;33529;49.242;8.670;2022-12-07T06:28:48;3.30;99.90
47765;DHT22;33529;49.242;8.670;2022-12-07T06:31:15;3.40;99.90
47765;DHT22;33529;49.242;8.670;2022-12-07T06:33:42;3.40;99.90
47765;DHT22;33529;49.242;8.670;2022-12-07T06:36:09;3.40;99.90
47765;DHT22;33529;49.242;8.670;2022-12-07T06:38:36;3.30;99.90
47765;DHT22;33529;49.242;8.670;2022-12-07T06:41:03;3.30;99.90
47765;DHT22;33529;49.242;8.670;2022-12-07T06:43:30;3.30;99.90
47765;DHT22;33529;49.242;8.670;2022-12-07T06:45:57;3.30;99.90
47765;DHT22;33529;49.242;8.670;2022-12-07T06:48:24;3.40;99.90
47765;DHT22;33529;49.242;8.670;2022-12-07T06:50:51;3.40;99.90
47765;DHT22;33529;49.242;8.670;2022-12-07T06:53:21;3.40;99.90
47765;DHT22;33529;49.242;8.670;2022-12-07T06:55:48;3.40;99.90
47765;DHT22;33529;49.242;8.670;2022-12-07T06:58:14;3.50;99.90
47765;DHT22;33529;49.242;8.670;2022-12-07T07:00:41;3.50;99.90
47765;DHT22;33529;49.242;8.670;2022-12-07T07:03:08;3.50;99.90
47765;DHT22;33529;49.242;8.670;2022-12-07T07:05:35;3.50;99.90
47765;DHT22;33529;49.242;8.670;2022-12-07T07:08:02;3.50;99.90
47765;DHT22;33529;49.242;8.670;2022-12-07T07:10:49;3.50;99.90
47765;DHT22;33529;49.242;8.670;2022-12-07T07:13:16;3.60;99.90
47765;DHT22;33529;49.242;8.670;2022-12-07T07:15:43;3.60;99.90
47765;DHT22;33529;49.242;8.670;2022-12-07T07:18:11;3.60;99.90
47765;DHT22;33529;49.242;8.670;2022-12-07T07:20:38;3.60;99.90
47765;DHT22;33529;49.242;8.670;2022-12-07T07:23:06;3.60;99.90
47765;DHT22;33529;49.242;8.670;2022-12-07T07:25:33;3.70;99.90
47765;DHT22;33529;49.242;8.670;2022-12-07T07:28:00;3.60;99.90
47765;DHT22;33529;49.242;8.670;2022-12-07T07:30:27;3.70;99.90
47765;DHT22;33529;49.242;8.670;2022-12-07T07:32:58;3.70;99.90
47765;DHT22;33529;49.242;8.670;2022-12-07T07:35:26;3.70;99.90
47765;DHT22;33529;49.242;8.670;2022-12-07T07:37:53;3.70;99.90
47765;DHT22;33529;49.242;8.670;2022-12-07T07:40:20;3.70;99.90
47765;DHT22;33529;49.242;8.670;2022-12-07T07:42:48;3.80;99.90
47765;DHT22;33529;49.242;8.670;2022-12-07T07:45:15;3.90;99.90
47765;DHT22;33529;49.242;8.670;2022-12-07T07:47:42;3.90;99.90
47765;DHT22;33529;49.242;8.670;2022-12-07T07:50:09;4.00;99.90
47765;DHT22;33529;49.242;8.670;2022-12-07T07:52:38;3.90;99.90
47765;DHT22;33529;49.242;8.670;2022-12-07T07:55:05;3.90;99.90
47765;DHT22;33529;49.242;8.670;2022-12-07T07:57:32;4.00;99.90
47765;DHT22;33529;49.242;8.670;2022-12-07T07:59:59;4.00;99.90
47765;DHT22;33529;49.242;8.670;2022-12-07T08:02:26;4.10;99.90
47765;DHT22;33529;49.242;8.670;2022-12-07T08:04:58;4.00;99.90
47765;DHT22;33529;49.242;8.670;2022-12-07T08:07:26;4.00;99.90
47765;DHT22;33529;49.242;8.670;2022-12-07T08:09:53;4.10;99.90
47765;DHT22;33529;49.242;8.670;2022-12-07T08:12:20;4.10;99.90
47765;DHT22;33529;49.242;8.670;2022-12-07T08:14:47;4.10;99.90
47765;DHT22;33529;49.242;8.670;2022-12-07T08:17:13;4.20;99.90
47765;DHT22;33529;49.242;8.670;2022-12-07T08:19:40;4.20;99.90
47765;DHT22;33529;49.242;8.670;2022-12-07T08:22:07;4.20;99.90
47765;DHT22;33529;49.242;8.670;2022-12-07T08:24:34;4.20;99.90
47765;DHT22;33529;49.242;8.670;2022-12-07T08:27:03;4.20;99.90
47765;DHT22;33529;49.242;8.670;2022-12-07T08:29:30;4.20;99.90
47765;DHT22;33529;49.242;8.670;2022-12-07T08:31:57;4.10;99.90
47765;DHT22;33529;49.242;8.670;2022-12-07T08:34:24;4.10;99.90
47765;DHT22;33529;49.242;8.670;2022-12-07T08:36:51;4.10;99.90
47765;DHT22;33529;49.242;8.670;2022-12-07T08:39:17;4.20;99.90
47765;DHT22;33529;49.242;8.670;2022-12-07T08:41:59;4.20;99.90
47765;DHT22;33529;49.242;8.670;2022-12-07T08:44:26;4.30;99.90
47765;DHT22;33529;49.242;8.670;2022-12-07T08:46:57;4.20;99.90
47765;DHT22;33529;49.242;8.670;2022-12-07T08:49:38;4.20;99.90
47765;DHT22;33529;49.242;8.670;2022-12-07T08:52:06;4.20;99.90
47765;DHT22;33529;49.242;8.670;2022-12-07T08:54:35;4.30;99.90
47765;DHT22;33529;49.242;8.670;2022-12-07T08:57:04;4.40;99.90
47765;DHT22;33529;49.242;8.670;2022-12-07T08:59:33;4.50;99.90
47765;DHT22;33529;49.242;8.670;2022-12-07T09:02:00;4.50;99.90
47765;DHT22;33529;49.242;8.670;2022-12-07T09:04:27;4.50;99.90
47765;DHT22;33529;49.242;8.670;2022-12-07T09:06:54;4.50;99.90
47765;DHT22;33529;49.242;8.670;2022-12-07T09:09:22;4.40;99.90
47765;DHT22;33529;49.242;8.670;2022-12-07T09:11:49;4.50;99.90
47765;DHT22;33529;49.242;8.670;2022-12-07T09:14:15;4.40;99.90
47765;DHT22;33529;49.242;8.670;2022-12-07T09:16:43;4.40;99.90
47765;DHT22;33529;49.242;8.670;2022-12-07T09:19:10;4.40;99.90
47765;DHT22;33529;49.242;8.670;2022-12-07T09:21:37;4.30;99.90
47765;DHT22;33529;49.242;8.670;2022-12-07T09:24:04;4.30;99.90
47765;DHT22;33529;49.242;8.670;2022-12-07T09:26:30;4.40;99.90
47765;DHT22;33529;49.242;8.670;2022-12-07T09:28:57;4.50;99.90
47765;DHT22;33529;49.242;8.670;2022-12-07T09:31:24;4.60;99.90
47765;DHT22;33529;49.242;8.670;2022-12-07T09:33:56;4.60;99.90
47765;DHT22;33529;49.242;8.670;2022-12-07T09:36:24;4.70;99.90
47765;DHT22;33529;49.242;8.670;2022-12-07T09:38:51;4.60;99.90
47765;DHT22;33529;49.242;8.670;2022-12-07T09:41:19;4.60;99.90
47765;DHT22;33529;49.242;8.670;2022-12-07T09:43:48;4.60;99.90
47765;DHT22;33529;49.242;8.670;2022-12-07T09:46:16;4.60;99.90
47765;DHT22;33529;49.242;8.670;2022-12-07T09:48:46;4.50;99.90
47765;DHT22;33529;49.242;8.670;2022-12-07T09:51:19;4.60;99.90
47765;DHT22;33529;49.242;8.670;2022-12-07T09:53:52;4.50;99.90
47765;DHT22;33529;49.242;8.670;2022-12-07T09:56:19;4.50;99.90
47765;DHT22;33529;49.242;8.670;2022-12-07T09:58:47;4.60;99.90
47765;DHT22;33529;49.242;8.670;2022-12-07T10:01:17;4.70;99.90
47765;DHT22;33529;49.242;8.670;2022-12-07T10:03:52;4.70;99.90
47765;DHT22;33529;49.242;8.670;2022-12-07T10:06:19;4.80;99.90
47765;DHT22;33529;49.242;8.670;2022-12-07T10:08:47;4.70;99.90
47765;DHT22;33529;49.242;8.670;2022-12-07T10:11:14;4.70;99.90
47765;DHT22;33529;49.242;8.670;2022-12-07T10:13:47;4.70;99.90
47765;DHT22;33529;49.242;8.670;2022-12-07T10:16:41;4.80;99.90
47765;DHT22;33529;49.242;8.670;2022-12-07T10:19:32;4.90;99.90
47765;DHT22;33529;49.242;8.670;2022-12-07T10:22:16;4.90;99.90
47765;DHT22;33529;49.242;8.670;2022-12-07T10:24:46;4.90;99.90
47765;DHT22;33529;49.242;8.670;2022-12-07T10:27:31;4.90;99.90
47765;DHT22;33529;49.242;8.670;2022-12-07T10:29:58;5.00;99.90
47765;DHT22;33529;49.242;8.670;2022-12-07T10:32:36;5.00;99.90
47765;DHT22;33529;49.242;8.670;2022-12-07T10:35:29;4.90;99.90
47765;DHT22;33529;49.242;8.670;2022-12-07T10:37:59;4.90;99.90
47765;DHT22;33529;49.242;8.670;2022-12-07T10:40:30;4.90;99.90
47765;DHT22;33529;49.242;8.670;2022-12-07T10:43:19;4.90;99.90
47765;DHT22;33529;49.242;8.670;2022-12-07T10:46:07;4.90;99.90
47765;DHT22;33529;49.242;8.670;2022-12-07T10:57:26;5.20;99.90
47765;DHT22;33529;49.242;8.670;2022-12-07T11:02:40;5.20;99.90
47765;DHT22;33529;49.242;8.670;2022-12-07T11:05:26;5.10;99.90
47765;DHT22;33529;49.242;8.670;2022-12-07T11:10:36;5.20;99.90
47765;DHT22;33529;49.242;8.670;2022-12-07T11:13:23;5.10;99.90
47765;DHT22;33529;49.242;8.670;2022-12-07T11:16:08;5.20;99.90
47765;DHT22;33529;49.242;8.670;2022-12-07T11:18:52;5.20;99.90
47765;DHT22;33529;49.242;8.670;2022-12-07T11:21:27;5.20;99.90
47765;DHT22;33529;49.242;8.670;2022-12-07T11:24:15;5.20;99.90
47765;DHT22;33529;49.242;8.670;2022-12-07T11:37:59;5.20;99.90
47765;DHT22;33529;49.242;8.670;2022-12-07T11:40:34;5.30;99.90
47765;DHT22;33529;49.242;8.670;2022-12-07T11:43:17;5.40;99.90
47765;DHT22;33529;49.242;8.670;2022-12-07T11:45:52;5.40;99.90
47765;DHT22;33529;49.242;8.670;2022-12-07T11:48:28;5.50;99.90
47765;DHT22;33529;49.242;8.670;2022-12-07T11:50:59;5.50;99.90
47765;DHT22;33529;49.242;8.670;2022-12-07T11:58:59;5.50;99.90
47765;DHT22;33529;49.242;8.670;2022-12-07T12:04:31;5.60;99.90
47765;DHT22;33529;49.242;8.670;2022-12-07T12:07:00;5.60;99.90
47765;DHT22;33529;49.242;8.670;2022-12-07T12:09:58;5.60;99.90
47765;DHT22;33529;49.242;8.670;2022-12-07T12:12:42;5.70;99.90
47765;DHT22;33529;49.242;8.670;2022-12-07T12:18:53;6.00;99.90
47765;DHT22;33529;49.242;8.670;2022-12-07T12:21:28;6.00;99.90
47765;DHT22;33529;49.242;8.670;2022-12-07T12:23:59;5.90;99.90
47765;DHT22;33529;49.242;8.670;2022-12-07T12:26:30;5.80;99.90
47765;DHT22;33529;49.242;8.670;2022-12-07T12:29:03;5.80;99.90
47765;DHT22;33529;49.242;8.670;2022-12-07T12:31:42;5.80;99.90
47765;DHT22;33529;49.242;8.670;2022-12-07T12:42:44;5.50;99.90
47765;DHT22;33529;49.242;8.670;2022-12-07T12:47:54;5.40;99.90
47765;DHT22;33529;49.242;8.670;2022-12-07T12:50:42;5.40;99.90
47765;DHT22;33529;49.242;8.670;2022-12-07T12:53:25;5.40;99.90
47765;DHT22;33529;49.242;8.670;2022-12-07T12:58:31;5.40;99.90
47765;DHT22;33529;49.242;8.670;2022-12-07T13:04:02;5.60;99.90
47765;DHT22;33529;49.242;8.670;2022-12-07T13:06:36;5.60;99.90
47765;DHT22;33529;49.242;8.670;2022-12-07T13:09:15;5.70;99.90
47765;DHT22;33529;49.242;8.670;2022-12-07T13:11:48;5.60;99.90
47765;DHT22;33529;49.242;8.670;2022-12-07T13:20:05;5.60;99.90
47765;DHT22;33529;49.242;8.670;2022-12-07T13:22:43;5.60;99.90
47765;DHT22;33529;49.242;8.670;2022-12-07T13:25:30;5.50;99.90
47765;DHT22;33529;49.242;8.670;2022-12-07T13:28:07;5.50;99.90
47765;DHT22;33529;49.242;8.670;2022-12-07T13:31:03;5.60;99.90
47765;DHT22;33529;49.242;8.670;2022-12-07T13:33:36;5.60;99.90
47765;DHT22;33529;49.242;8.670;2022-12-07T13:36:03;5.60;99.90
47765;DHT22;33529;49.242;8.670;2022-12-07T13:38:34;5.60;99.90
47765;DHT22;33529;49.242;8.670;2022-12-07T13:41:13;5.50;99.90
47765;DHT22;33529;49.242;8.670;2022-12-07T13:44:01;5.60;99.90
47765;DHT22;33529;49.242;8.670;2022-12-07T13:46:48;5.60;99.90
47765;DHT22;33529;49.242;8.670;2022-12-07T13:49:23;5.70;99.90
47765;DHT22;33529;49.242;8.670;2022-12-07T13:51:51;5.60;99.90
47765;DHT22;33529;49.242;8.670;2022-12-07T13:54:18;5.70;99.90
47765;DHT22;33529;49.242;8.670;2022-12-07T13:56:52;5.70;99.90
47765;DHT22;33529;49.242;8.670;2022-12-07T13:59:21;5.70;99.90
47765;DHT22;33529;49.242;8.670;2022-12-07T14:01:50;5.60;99.90
47765;DHT22;33529;49.242;8.670;2022-12-07T14:04:31;5.70;99.90
47765;DHT22;33529;49.242;8.670;2022-12-07T14:06:58;5.70;99.90
47765;DHT22;33529;49.242;8.670;2022-12-07T14:09:29;5.70;99.90
47765;DHT22;33529;49.242;8.670;2022-12-07T14:11:57;5.70;99.90
47765;DHT22;33529;49.242;8.670;2022-12-07T14:14:28;5.60;99.90
47765;DHT22;33529;49.242;8.670;2022-12-07T14:17:19;5.60;99.90
47765;DHT22;33529;49.242;8.670;2022-12-07T14:22:37;5.50;99.90
47765;DHT22;33529;49.242;8.670;2022-12-07T14:27:48;5.60;99.90
47765;DHT22;33529;49.242;8.670;2022-12-07T14:30:16;5.60;99.90
47765;DHT22;33529;49.242;8.670;2022-12-07T14:32:44;5.60;99.90
47765;DHT22;33529;49.242;8.670;2022-12-07T14:35:16;5.60;99.90
47765;DHT22;33529;49.242;8.670;2022-12-07T14:37:46;5.50;99.90
47765;DHT22;33529;49.242;8.670;2022-12-07T14:40:16;5.50;99.90
47765;DHT22;33529;49.242;8.670;2022-12-07T14:42:43;5.50;99.90
47765;DHT22;33529;49.242;8.670;2022-12-07T14:45:15;5.40;99.90
47765;DHT22;33529;49.242;8.670;2022-12-07T14:47:44;5.40;99.90
47765;DHT22;33529;49.242;8.670;2022-12-07T14:50:35;5.30;99.90
47765;DHT22;33529;49.242;8.670;2022-12-07T14:53:11;5.30;99.90
47765;DHT22;33529;49.242;8.670;2022-12-07T14:55:54;5.30;99.90
47765;DHT22;33529;49.242;8.670;2022-12-07T14:58:21;5.30;99.90
47765;DHT22;33529;49.242;8.670;2022-12-07T15:00:48;5.30;99.90
47765;DHT22;33529;49.242;8.670;2022-12-07T15:03:15;5.30;99.90
47765;DHT22;33529;49.242;8.670;2022-12-07T15:05:42;5.30;99.90
47765;DHT22;33529;49.242;8.670;2022-12-07T15:08:11;5.20;99.90
47765;DHT22;33529;49.242;8.670;2022-12-07T15:10:39;5.20;99.90
47765;DHT22;33529;49.242;8.670;2022-12-07T15:13:07;5.10;99.90
47765;DHT22;33529;49.242;8.670;2022-12-07T15:15:54;5.10;99.90
47765;DHT22;33529;49.242;8.670;2022-12-07T15:18:22;5.10;99.90
47765;DHT22;33529;49.242;8.670;2022-12-07T15:20:49;5.10;99.90
47765;DHT22;33529;49.242;8.670;2022-12-07T15:23:16;5.20;99.90
47765;DHT22;33529;49.242;8.670;2022-12-07T15:25:45;5.10;99.90
47765;DHT22;33529;49.242;8.670;2022-12-07T15:28:12;5.00;99.90
47765;DHT22;33529;49.242;8.670;2022-12-07T15:30:41;5.00;99.90
47765;DHT22;33529;49.242;8.670;2022-12-07T15:33:09;5.00;99.90
47765;DHT22;33529;49.242;8.670;2022-12-07T15:35:44;4.90;99.90
47765;DHT22;33529;49.242;8.670;2022-12-07T15:38:11;4.90;99.90
47765;DHT22;33529;49.242;8.670;2022-12-07T15:40:38;4.90;99.90
47765;DHT22;33529;49.242;8.670;2022-12-07T15:43:05;4.90;99.90
47765;DHT22;33529;49.242;8.670;2022-12-07T15:45:52;4.90;99.90
47765;DHT22;33529;49.242;8.670;2022-12-07T15:48:19;5.00;99.90
47765;DHT22;33529;49.242;8.670;2022-12-07T15:51:04;4.90;99.90
47765;DHT22;33529;49.242;8.670;2022-12-07T15:53:33;4.90;99.90
47765;DHT22;33529;49.242;8.670;2022-12-07T15:56:00;4.90;99.90
47765;DHT22;33529;49.242;8.670;2022-12-07T15:58:26;4.90;99.90
47765;DHT22;33529;49.242;8.670;2022-12-07T16:00:54;4.90;99.90
47765;DHT22;33529;49.242;8.670;2022-12-07T16:03:20;5.00;99.90
47765;DHT22;33529;49.242;8.670;2022-12-07T16:05:51;4.90;99.90
47765;DHT22;33529;49.242;8.670;2022-12-07T16:08:19;4.90;99.90
47765;DHT22;33529;49.242;8.670;2022-12-07T16:10:46;4.80;99.90
47765;DHT22;33529;49.242;8.670;2022-12-07T16:13:13;4.70;99.90
47765;DHT22;33529;49.242;8.670;2022-12-07T16:15:43;4.70;99.90
47765;DHT22;33529;49.242;8.670;2022-12-07T16:18:10;4.70;99.90
47765;DHT22;33529;49.242;8.670;2022-12-07T16:20:37;4.70;99.90
47765;DHT22;33529;49.242;8.670;2022-12-07T16:23:03;4.80;99.90
47765;DHT22;33529;49.242;8.670;2022-12-07T16:25:30;4.70;99.90
47765;DHT22;33529;49.242;8.670;2022-12-07T16:27:57;4.70;99.90
47765;DHT22;33529;49.242;8.670;2022-12-07T16:30:23;4.60;99.90
47765;DHT22;33529;49.242;8.670;2022-12-07T16:32:51;4.60;99.90
47765;DHT22;33529;49.242;8.670;2022-12-07T16:35:23;4.60;99.90
47765;DHT22;33529;49.242;8.670;2022-12-07T16:37:50;4.60;99.90
47765;DHT22;33529;49.242;8.670;2022-12-07T16:40:16;4.60;99.90
47765;DHT22;33529;49.242;8.670;2022-12-07T16:42:43;4.60;99.90
47765;DHT22;33529;49.242;8.670;2022-12-07T16:45:10;4.60;99.90
47765;DHT22;33529;49.242;8.670;2022-12-07T16:47:43;4.60;99.90
47765;DHT22;33529;49.242;8.670;2022-12-07T16:50:10;4.50;99.90
47765;DHT22;33529;49.242;8.670;2022-12-07T16:52:36;4.50;99.90
47765;DHT22;33529;49.242;8.670;2022-12-07T16:55:03;4.50;99.90
47765;DHT22;33529;49.242;8.670;2022-12-07T16:57:31;4.50;99.90
47765;DHT22;33529;49.242;8.670;2022-12-07T16:59:58;4.50;99.90
47765;DHT22;33529;49.242;8.670;2022-12-07T17:02:25;4.50;99.90
47765;DHT22;33529;49.242;8.670;2022-12-07T17:04:52;4.50;99.90
47765;DHT22;33529;49.242;8.670;2022-12-07T17:07:19;4.50;99.90
47765;DHT22;33529;49.242;8.670;2022-12-07T17:09:46;4.40;99.90
47765;DHT22;33529;49.242;8.670;2022-12-07T17:12:12;4.40;99.90
47765;DHT22;33529;49.242;8.670;2022-12-07T17:14:39;4.40;99.90
47765;DHT22;33529;49.242;8.670;2022-12-07T17:17:25;4.30;99.90
47765;DHT22;33529;49.242;8.670;2022-12-07T17:19:52;4.20;99.90
47765;DHT22;33529;49.242;8.670;2022-12-07T17:22:19;4.30;99.90
47765;DHT22;33529;49.242;8.670;2022-12-07T17:24:46;4.30;99.90
47765;DHT22;33529;49.242;8.670;2022-12-07T17:27:12;4.20;99.90
47765;DHT22;33529;49.242;8.670;2022-12-07T17:29:39;4.20;99.90
47765;DHT22;33529;49.242;8.670;2022-12-07T17:32:06;4.10;99.90
47765;DHT22;33529;49.242;8.670;2022-12-07T17:34:33;4.10;99.90
47765;DHT22;33529;49.242;8.670;2022-12-07T17:36:59;4.10;99.90
47765;DHT22;33529;49.242;8.670;2022-12-07T17:39:26;4.10;99.90
47765;DHT22;33529;49.242;8.670;2022-12-07T17:41:53;4.20;99.90
47765;DHT22;33529;49.242;8.670;2022-12-07T17:44:39;4.20;99.90